Time;durP1;ratioP1;P1;durP2;ratioP2;P2;SDS_P1;SDS_P2;PMS_P1;PMS_P2;Temp;Humidity;BMP_temperature;BMP_pressure;BME280_temperature;BME280_humidity;BME280_pressure;Samples;Min_cycle;Max_cycle;Signal;HPM_P1;HPM_P2
2021/03/12 00:00:48;;;;;;;5.78;2.03;;;;;;;7.76;64.53;98944.97;5001450;28;20065;-79
2021/03/12 00:03:16;;;;;;;3.50;1.40;;;;;;;7.70;64.36;98947.91;4993827;28;20412;-79
2021/03/12 00:05:45;;;;;;;7.78;2.20;;;;;;;7.70;64.63;98955.41;4991981;28;20054;-79
2021/03/12 00:08:13;;;;;;;6.77;1.57;;;;;;;7.66;64.88;98944.16;4992910;28;20089;-78
2021/03/12 00:10:41;;;;;;;6.15;1.52;;;;;;;7.70;64.77;98959.00;4998838;28;20058;-79
2021/03/12 00:13:09;;;;;;;5.68;2.10;;;;;;;7.71;64.66;98957.84;4992955;28;20059;-79
2021/03/12 00:15:37;;;;;;;4.53;1.48;;;;;;;7.72;64.22;98967.78;4999715;28;20054;-79
2021/03/12 00:18:05;;;;;;;8.02;2.17;;;;;;;7.68;64.64;98969.59;4994268;28;20066;-79
2021/03/12 00:20:34;;;;;;;7.88;1.70;;;;;;;7.69;64.13;98978.75;4998321;28;20058;-79
2021/03/12 00:23:02;;;;;;;7.95;1.90;;;;;;;7.68;63.58;98972.38;4999599;28;20058;-79
2021/03/12 00:25:33;;;;;;;4.93;1.65;;;;;;;7.68;64.47;98986.22;4999357;28;20428;-78
2021/03/12 00:28:00;;;;;;;3.33;1.30;;;;;;;7.73;63.59;98996.34;4999732;28;20062;-79
2021/03/12 00:30:27;;;;;;;3.20;1.27;;;;;;;7.76;63.25;98994.84;4999828;28;20077;-79
2021/03/12 00:32:54;;;;;;;3.75;1.38;;;;;;;7.73;63.76;98993.56;5000082;28;20101;-78
2021/03/12 00:35:21;;;;;;;4.57;1.63;;;;;;;7.78;64.21;98993.38;5002988;28;20054;-78
2021/03/12 00:37:48;;;;;;;4.95;1.58;;;;;;;7.80;64.02;99016.03;5003178;28;20337;-79
2021/03/12 00:40:17;;;;;;;2.55;1.15;;;;;;;7.83;63.38;99009.00;5002123;28;20511;-78
2021/03/12 00:42:45;;;;;;;2.55;1.30;;;;;;;7.80;63.37;99015.22;5002990;28;20058;-79
2021/03/12 00:45:15;;;;;;;4.00;1.67;;;;;;;7.84;64.01;99041.13;5002757;28;20061;-78
2021/03/12 00:47:44;;;;;;;3.65;1.38;;;;;;;7.93;62.92;99033.59;5001938;28;20101;-78
2021/03/12 00:50:12;;;;;;;6.93;1.63;;;;;;;7.92;62.98;99038.31;5003080;28;20050;-78
2021/03/12 00:52:41;;;;;;;4.07;1.48;;;;;;;7.98;62.43;99046.44;5001987;28;20058;-78
2021/03/12 00:55:09;;;;;;;7.03;2.55;;;;;;;7.96;62.36;99046.81;5000424;28;20054;-79
2021/03/12 00:57:36;;;;;;;5.65;1.50;;;;;;;7.97;62.44;99047.59;5000547;28;20440;-78
2021/03/12 01:00:05;;;;;;;5.40;1.60;;;;;;;7.92;62.13;99054.97;5000099;28;20377;-77
2021/03/12 01:02:32;;;;;;;3.03;1.60;;;;;;;7.87;62.55;99055.16;4999771;28;20054;-78
2021/03/12 01:05:02;;;;;;;4.30;1.73;;;;;;;7.92;62.59;99062.47;4999243;28;20054;-79
2021/03/12 01:07:28;;;;;;;;;;;;;;;7.90;62.57;99062.78;5002450;28;20058;-79
2021/03/12 01:09:55;;;;;;;3.05;1.33;;;;;;;7.80;63.11;99063.16;5003275;28;19926;-78
2021/03/12 01:12:22;;;;;;;7.45;1.98;;;;;;;7.84;62.84;99074.41;5003235;28;20070;-79
2021/03/12 01:14:49;;;;;;;5.15;1.85;;;;;;;7.89;62.54;99076.97;5003608;28;20404;-79
2021/03/12 01:17:16;;;;;;;5.47;1.85;;;;;;;7.87;62.86;99079.25;5002847;28;20058;-79
2021/03/12 01:19:43;;;;;;;3.78;1.70;;;;;;;7.93;62.78;99103.69;5003025;28;20054;-79
2021/03/12 01:22:11;;;;;;;8.25;2.25;;;;;;;7.99;62.67;99084.94;5002920;28;20055;-79
2021/03/12 01:24:37;;;;;;;3.83;1.88;;;;;;;7.99;62.33;99090.47;5002985;28;20087;-79
2021/03/12 01:27:05;;;;;;;4.43;1.83;;;;;;;7.98;62.14;99097.19;5002625;28;20062;-78
2021/03/12 01:29:32;;;;;;;6.95;2.13;;;;;;;8.04;62.57;99103.34;5001582;28;20055;-79
2021/03/12 01:31:59;;;;;;;3.05;1.50;;;;;;;7.99;62.39;99089.69;5003070;28;20427;-78
2021/03/12 01:34:27;;;;;;;4.47;1.60;;;;;;;7.97;62.72;99083.66;5003770;28;20066;-79
2021/03/12 01:36:54;;;;;;;5.43;1.58;;;;;;;7.99;62.67;99092.44;5003367;28;20065;-79
2021/03/12 01:39:22;;;;;;;7.10;1.80;;;;;;;7.99;62.86;99106.31;5003133;28;20062;-79
2021/03/12 01:41:49;;;;;;;8.63;2.47;;;;;;;7.97;62.17;99091.97;5002229;28;20476;-79
2021/03/12 01:44:17;;;;;;;6.63;2.20;;;;;;;7.92;62.68;99104.06;5002964;28;20061;-78
2021/03/12 01:46:43;;;;;;;6.82;2.03;;;;;;;7.97;62.72;99086.41;5002081;28;20065;-79
2021/03/12 01:49:13;;;;;;;7.10;2.40;;;;;;;7.93;62.43;99083.50;5002173;28;20388;-79
2021/03/12 01:51:40;;;;;;;9.32;2.53;;;;;;;7.88;62.68;99095.56;5003747;28;20059;-78
2021/03/12 01:54:06;;;;;;;6.80;2.40;;;;;;;7.89;63.07;99101.94;5002192;28;20408;-78
2021/03/12 01:56:34;;;;;;;5.88;2.35;;;;;;;7.86;62.75;99086.78;5002497;28;20069;-79
2021/03/12 01:59:01;;;;;;;6.07;2.40;;;;;;;7.97;62.35;99092.78;5002156;28;20062;-78
2021/03/12 02:01:28;;;;;;;7.38;2.47;;;;;;;8.03;62.47;99110.88;5002281;28;20058;-78
2021/03/12 02:03:55;;;;;;;6.32;2.10;;;;;;;8.01;61.26;99102.06;5000508;28;20489;-78
2021/03/12 02:06:22;;;;;;;11.15;2.63;;;;;;;8.05;61.79;99130.75;5000265;28;20058;-79
2021/03/12 02:08:48;;;;;;;6.70;2.30;;;;;;;8.06;61.54;99132.41;4999520;28;20116;-78
2021/03/12 02:11:18;;;;;;;3.47;2.03;;;;;;;8.00;62.02;99175.31;5000306;28;20066;-78
2021/03/12 02:13:54;;;;;;;8.15;2.85;;;;;;;7.98;62.54;99154.56;5000868;28;20058;-79
2021/03/12 02:16:25;;;;;;;7.22;2.22;;;;;;;7.93;63.21;99167.47;5000631;28;20054;-78
2021/03/12 02:18:58;;;;;;;7.38;3.22;;;;;;;7.92;63.48;99162.28;5000243;28;20074;-78
2021/03/12 02:21:32;;;;;;;6.88;2.50;;;;;;;7.91;64.03;99166.19;4999772;28;20061;-78
2021/03/12 02:24:16;;;;;;;8.45;2.28;;;;;;;7.82;64.69;99157.06;4999617;28;20047;-78
2021/03/12 02:27:03;;;;;;;6.80;3.03;;;;;;;7.77;64.97;99154.44;5000774;28;20518;-78
2021/03/12 02:29:32;;;;;;;6.05;2.55;;;;;;;7.72;64.83;99149.91;4998998;28;20054;-78
2021/03/12 02:32:01;;;;;;;6.43;2.43;;;;;;;7.64;65.69;99151.56;4998612;28;20059;-78
2021/03/12 02:34:32;;;;;;;6.95;2.38;;;;;;;7.65;65.83;99158.72;5000132;28;20065;-78
2021/03/12 02:37:01;;;;;;;6.13;2.67;;;;;;;7.68;65.53;99171.91;4999562;28;20054;-78
2021/03/12 02:39:31;;;;;;;6.60;2.50;;;;;;;7.62;66.03;99176.00;4998419;28;20055;-78
2021/03/12 02:42:01;;;;;;;8.80;3.15;;;;;;;7.64;65.26;99184.81;4999483;28;20069;-78
2021/03/12 02:44:31;;;;;;;8.65;2.97;;;;;;;7.62;65.77;99186.25;4999363;28;20362;-78
2021/03/12 02:47:01;;;;;;;8.70;3.65;;;;;;;7.52;65.09;99176.34;4998542;28;20054;-78
2021/03/12 02:49:29;;;;;;;5.55;2.65;;;;;;;7.47;65.52;99173.72;4998735;28;20057;-78
2021/03/12 02:51:57;;;;;;;10.88;3.30;;;;;;;7.53;65.78;99170.44;4998062;28;20081;-78
2021/03/12 02:54:24;;;;;;;7.65;3.20;;;;;;;7.58;65.24;99186.13;4998509;28;20370;-78
2021/03/12 02:56:54;;;;;;;6.30;3.13;;;;;;;7.57;65.58;99161.50;4997445;28;20050;-78
2021/03/12 02:59:24;;;;;;;8.63;2.85;;;;;;;7.48;65.21;99167.03;4998183;28;20443;-78
2021/03/12 03:01:53;;;;;;;9.25;2.45;;;;;;;7.51;64.80;99174.69;4997873;28;20050;-78
2021/03/12 03:04:21;;;;;;;6.30;2.90;;;;;;;7.53;64.49;99180.72;4997890;28;20065;-78
2021/03/12 03:06:48;;;;;;;7.25;2.92;;;;;;;7.51;63.71;99181.03;4998074;28;20069;-78
2021/03/12 03:09:17;;;;;;;7.28;2.75;;;;;;;7.48;63.87;99187.25;4998338;28;20058;-78
2021/03/12 03:11:45;;;;;;;7.45;3.38;;;;;;;7.51;64.12;99205.16;4998394;28;20519;-78
2021/03/12 03:14:15;;;;;;;6.18;2.72;;;;;;;7.55;64.17;99219.19;4997348;28;20420;-78
2021/03/12 03:16:47;;;;;;;5.60;2.90;;;;;;;7.51;64.71;99233.69;4997171;28;20058;-78
2021/03/12 03:19:15;;;;;;;8.32;3.33;;;;;;;7.47;66.73;99235.47;4997545;28;20058;-78
2021/03/12 03:21:43;;;;;;;7.82;3.42;;;;;;;7.46;67.71;99242.16;4998596;28;20055;-79
2021/03/12 03:24:11;;;;;;;9.45;3.70;;;;;;;7.39;67.45;99235.47;4998619;28;20055;-78
2021/03/12 03:26:37;;;;;;;8.10;3.22;;;;;;;7.43;67.73;99239.22;4999014;28;20146;-79
2021/03/12 03:29:06;;;;;;;9.75;3.85;;;;;;;7.44;67.34;99243.63;4998331;28;20397;-78
2021/03/12 03:31:33;;;;;;;9.15;3.10;;;;;;;7.40;65.94;99242.66;4998579;28;20058;-78
2021/03/12 03:34:01;;;;;;;9.80;3.40;;;;;;;7.41;65.65;99247.03;4999098;28;20065;-78
2021/03/12 03:36:28;;;;;;;7.43;2.92;;;;;;;7.36;64.43;99252.75;4998035;28;20066;-79
2021/03/12 03:38:55;;;;;;;7.93;2.75;;;;;;;7.39;65.19;99243.78;4998575;28;20491;-79
2021/03/12 03:41:23;;;;;;;6.75;2.50;;;;;;;7.40;64.06;99237.09;4997495;28;20046;-78
2021/03/12 03:43:52;;;;;;;7.65;2.30;;;;;;;7.31;63.58;99248.19;4997562;28;20058;-78
2021/03/12 03:46:22;;;;;;;8.82;2.42;;;;;;;7.35;63.76;99259.41;4997998;28;20065;-79
2021/03/12 03:48:50;;;;;;;5.45;2.50;;;;;;;7.35;63.70;99262.19;4997988;28;20062;-78
2021/03/12 03:51:18;;;;;;;7.75;3.00;;;;;;;7.38;63.25;99264.31;4997389;28;20077;-79
2021/03/12 03:53:48;;;;;;;7.63;2.40;;;;;;;7.44;62.30;99274.09;4998440;28;20061;-79
2021/03/12 03:56:17;;;;;;;6.30;2.30;;;;;;;7.42;61.65;99271.66;4998633;28;20412;-79
2021/03/12 03:58:45;;;;;;;7.87;2.50;;;;;;;7.47;62.19;99267.91;4999275;28;20057;-79
2021/03/12 04:01:13;;;;;;;6.75;2.20;;;;;;;7.49;60.71;99268.41;4998718;28;20062;-79
2021/03/12 04:03:41;;;;;;;9.27;2.90;;;;;;;7.50;61.28;99276.41;4999006;28;20054;-78
2021/03/12 04:06:10;;;;;;;7.25;2.53;;;;;;;7.55;61.30;99267.09;4998730;28;20054;-79
2021/03/12 04:08:39;;;;;;;6.82;2.90;;;;;;;7.56;61.22;99279.84;4998306;28;20164;-79
2021/03/12 04:11:07;;;;;;;8.77;2.55;;;;;;;7.53;60.69;99272.97;4999019;28;20066;-79
2021/03/12 04:13:36;;;;;;;9.77;3.42;;;;;;;7.62;60.51;99286.84;4998894;28;20062;-78
2021/03/12 04:16:04;;;;;;;6.45;2.33;;;;;;;7.59;59.91;99287.50;4998350;28;20058;-78
2021/03/12 04:18:31;;;;;;;4.93;2.28;;;;;;;7.54;59.79;99295.97;4997252;28;20073;-78
2021/03/12 04:21:00;;;;;;;11.07;4.93;;;;;;;7.56;59.01;99304.78;4997693;28;20058;-78
2021/03/12 04:23:27;;;;;;;8.77;3.60;;;;;;;7.58;59.15;99299.72;4997478;28;20066;-78
2021/03/12 04:25:56;;;;;;;5.22;2.22;;;;;;;7.57;58.90;99306.41;4998076;28;20066;-79
2021/03/12 04:28:23;;;;;;;7.93;2.30;;;;;;;7.57;59.11;99300.03;4997732;28;20065;-78
2021/03/12 04:30:50;;;;;;;6.13;2.85;;;;;;;7.61;57.59;99310.16;4996331;28;20054;-78
2021/03/12 04:33:19;;;;;;;7.63;2.53;;;;;;;7.61;58.32;99299.06;4997318;28;20065;-78
2021/03/12 04:35:46;;;;;;;6.38;2.28;;;;;;;7.62;57.95;99322.88;4996902;28;20050;-78
2021/03/12 04:38:13;;;;;;;5.50;2.78;;;;;;;7.67;58.68;99311.63;4997838;28;20069;-78
2021/03/12 04:40:40;;;;;;;9.55;2.42;;;;;;;7.70;57.98;99315.72;4996104;28;20065;-78
2021/03/12 04:43:09;;;;;;;6.15;2.45;;;;;;;7.70;58.62;99322.06;4996318;28;20058;-79
2021/03/12 04:45:36;;;;;;;8.50;2.55;;;;;;;7.78;58.16;99316.88;4994362;28;20050;-78
2021/03/12 04:48:06;;;;;;;8.40;2.28;;;;;;;7.77;58.94;99320.75;4994464;28;20457;-78
2021/03/12 04:50:33;;;;;;;10.48;3.53;;;;;;;7.83;59.16;99319.47;4994495;28;20062;-77
2021/03/12 04:53:00;;;;;;;7.05;2.40;;;;;;;7.89;59.17;99326.50;4993581;28;20062;-77
2021/03/12 04:55:28;;;;;;;6.15;2.35;;;;;;;7.90;60.86;99326.16;4993849;28;20054;-78
2021/03/12 04:57:55;;;;;;;7.75;2.53;;;;;;;7.90;62.29;99342.81;4993959;28;20065;-78
2021/03/12 05:00:23;;;;;;;7.53;2.70;;;;;;;7.91;62.01;99338.06;4994731;28;20054;-77
2021/03/12 05:02:51;;;;;;;8.32;2.50;;;;;;;7.83;62.67;99338.88;4993972;28;20062;-78
2021/03/12 05:05:18;;;;;;;7.63;3.60;;;;;;;7.70;63.80;99352.53;4994197;28;20070;-78
2021/03/12 05:07:46;;;;;;;10.80;3.30;;;;;;;7.71;65.67;99348.66;4995457;28;20058;-78
2021/03/12 05:10:13;;;;;;;9.02;2.92;;;;;;;7.66;64.23;99354.31;4996607;28;20069;-78
2021/03/12 05:12:40;;;;;;;12.02;3.33;;;;;;;7.67;64.04;99350.44;4997317;28;20357;-78
2021/03/12 05:15:08;;;;;;;9.88;2.80;;;;;;;7.65;63.25;99351.91;4996376;28;20062;-78
2021/03/12 05:17:36;;;;;;;11.20;3.72;;;;;;;7.53;63.43;99352.50;4996393;28;20057;-78
2021/03/12 05:20:03;;;;;;;7.40;2.47;;;;;;;7.58;62.02;99352.38;4997182;28;20061;-78
2021/03/12 05:22:30;;;;;;;9.77;3.53;;;;;;;7.53;62.28;99358.84;5000590;28;20058;-78
2021/03/12 05:24:57;;;;;;;9.30;3.00;;;;;;;7.55;62.82;99363.28;5000711;28;20065;-78
2021/03/12 05:27:24;;;;;;;7.97;2.55;;;;;;;7.56;61.11;99364.91;4999781;28;20062;-78
2021/03/12 05:29:50;;;;;;;9.88;2.97;;;;;;;7.54;60.80;99368.00;4998983;28;20061;-78
2021/03/12 05:32:18;;;;;;;9.90;2.70;;;;;;;7.50;60.53;99367.03;4999592;28;20058;-78
2021/03/12 05:34:46;;;;;;;6.18;2.22;;;;;;;7.51;60.74;99371.41;4999789;28;20054;-79
2021/03/12 05:37:13;;;;;;;6.78;2.30;;;;;;;7.52;59.70;99382.19;5000771;28;20065;-79
2021/03/12 05:39:40;;;;;;;5.20;2.03;;;;;;;7.52;59.95;99398.00;5000327;28;20077;-78
2021/03/12 05:42:07;;;;;;;6.88;2.20;;;;;;;7.52;58.37;99373.88;5001070;28;20058;-78
2021/03/12 05:44:34;;;;;;;5.45;2.08;;;;;;;7.47;58.79;99390.63;5000183;28;20062;-78
2021/03/12 05:47:01;;;;;;;5.75;2.25;;;;;;;7.52;58.52;99381.38;4999949;28;20057;-78
2021/03/12 05:49:29;;;;;;;6.80;2.08;;;;;;;7.53;58.63;99383.00;5000995;28;20058;-78
2021/03/12 05:51:57;;;;;;;5.07;2.03;;;;;;;7.51;58.66;99391.63;5000686;28;20066;-78
2021/03/12 05:54:24;;;;;;;3.67;1.30;;;;;;;7.48;57.69;99391.47;5000171;28;20054;-78
2021/03/12 05:56:51;;;;;;;6.78;1.95;;;;;;;7.50;57.63;99390.00;5000709;28;20055;-78
2021/03/12 05:59:18;;;;;;;6.03;1.90;;;;;;;7.57;57.97;99397.03;5000189;28;20070;-78
2021/03/12 06:01:45;;;;;;;7.45;2.40;;;;;;;7.59;58.28;99400.28;5000594;28;20515;-78
2021/03/12 06:04:13;;;;;;;8.40;1.95;;;;;;;7.58;57.91;99401.41;5001212;28;20074;-78
2021/03/12 06:06:39;;;;;;;7.10;2.00;;;;;;;7.63;58.26;99401.28;5000263;28;20054;-78
2021/03/12 06:09:07;;;;;;;6.75;1.63;;;;;;;7.60;57.46;99407.47;5001113;28;20061;-78
2021/03/12 06:11:34;;;;;;;6.53;1.80;;;;;;;7.62;57.56;99407.97;4999225;28;20065;-78
2021/03/12 06:14:01;;;;;;;7.82;1.88;;;;;;;7.64;57.07;99414.84;4995817;28;20062;-78
2021/03/12 06:16:30;;;;;;;7.57;2.05;;;;;;;7.73;57.28;99403.78;4997743;28;20061;-78
2021/03/12 06:19:16;;;;;;;5.03;1.92;;;;;;;7.77;56.87;99409.47;4996903;28;20058;-78
2021/03/12 06:21:45;;;;;;;6.82;1.90;;;;;;;7.79;57.38;99408.03;4999550;28;20063;-78
2021/03/12 06:24:27;;;;;;;5.10;1.67;;;;;;;7.82;57.29;99414.88;4999995;28;20503;-78
2021/03/12 06:26:55;;;;;;;6.60;2.38;;;;;;;7.91;57.20;99415.72;4998567;28;20054;-78
2021/03/12 06:29:35;;;;;;;12.30;2.20;;;;;;;7.94;57.19;99423.41;4994085;28;20074;-78
2021/03/12 06:32:03;;;;;;;7.95;1.98;;;;;;;7.99;57.01;99420.44;4994155;28;20507;-79
2021/03/12 06:34:31;;;;;;;8.00;2.28;;;;;;;8.00;56.38;99418.50;5000215;28;20069;-78
2021/03/12 06:37:01;;;;;;;6.20;2.30;;;;;;;8.02;57.12;99422.59;4999640;28;20058;-78
2021/03/12 06:39:32;;;;;;;11.82;2.38;;;;;;;7.98;57.54;99416.06;4998951;28;20058;-78
2021/03/12 06:41:59;;;;;;;8.57;3.42;;;;;;;8.00;57.64;99413.78;4997675;28;20050;-78
2021/03/12 06:44:28;;;;;;;9.05;2.20;;;;;;;8.02;57.26;99414.28;4998721;28;20065;-78
2021/03/12 06:46:56;;;;;;;10.88;2.78;;;;;;;8.10;58.01;99419.00;4999479;28;20049;-78
2021/03/12 06:49:23;;;;;;;12.35;3.05;;;;;;;8.20;58.17;99405.97;4999385;28;20058;-78
2021/03/12 06:51:54;;;;;;;10.50;2.97;;;;;;;8.12;58.28;99427.00;4999240;28;20057;-79
2021/03/12 06:54:21;;;;;;;13.43;3.45;;;;;;;8.28;57.94;99424.59;5000248;28;20054;-78
2021/03/12 06:56:49;;;;;;;9.63;3.28;;;;;;;8.28;58.19;99435.69;4998569;28;20069;-79
2021/03/12 06:59:26;;;;;;;8.60;3.25;;;;;;;8.36;57.43;99431.25;4997203;28;20055;-80
2021/03/12 07:01:57;;;;;;;12.32;3.40;;;;;;;8.49;56.86;99441.44;4998027;28;20058;-79
2021/03/12 07:04:26;;;;;;;7.70;2.53;;;;;;;8.59;55.46;99434.72;4998498;28;20050;-80
2021/03/12 07:06:53;;;;;;;9.63;3.37;;;;;;;8.53;55.61;99437.69;4996694;28;20058;-79
2021/03/12 07:09:21;;;;;;;13.18;3.40;;;;;;;8.62;56.48;99437.69;4997970;28;20046;-78
2021/03/12 07:11:59;;;;;;;13.90;3.10;;;;;;;8.82;55.09;99440.94;4998091;28;20412;-89
2021/03/12 07:14:26;;;;;;;13.07;3.67;;;;;;;9.09;54.38;99420.31;4997217;28;20061;-78
2021/03/12 07:16:53;;;;;;;9.60;2.80;;;;;;;9.35;52.67;99440.50;4996528;28;20054;-78
2021/03/12 07:19:21;;;;;;;9.20;2.63;;;;;;;9.41;52.46;99431.97;4997760;28;20058;-78
2021/03/12 07:21:50;;;;;;;10.77;3.97;;;;;;;9.47;52.08;99431.50;4997134;28;20061;-78
2021/03/12 07:24:22;;;;;;;12.25;2.95;;;;;;;9.64;52.10;99438.09;4998177;28;20104;-80
2021/03/12 07:26:50;;;;;;;6.53;2.55;;;;;;;9.73;52.43;99439.72;4995619;28;20077;-79
2021/03/12 07:29:19;;;;;;;10.63;2.65;;;;;;;9.67;51.98;99441.03;4993232;28;20050;-78
2021/03/12 07:31:50;;;;;;;9.48;3.22;;;;;;;9.63;51.75;99456.75;4972429;28;20106;-78
2021/03/12 07:34:20;;;;;;;10.77;2.63;;;;;;;9.35;53.00;99448.03;4976043;28;20546;-79
2021/03/12 07:36:49;;;;;;;15.82;3.20;;;;;;;9.29;53.38;99450.16;4985175;28;20063;-78
2021/03/12 07:39:20;;;;;;;12.57;3.47;;;;;;;9.32;52.98;99449.53;4958682;29;20063;-79
2021/03/12 07:41:48;;;;;;;11.77;3.38;;;;;;;9.21;53.07;99462.13;4972064;28;20058;-78
2021/03/12 07:44:17;;;;;;;12.15;3.40;;;;;;;9.29;52.97;99452.94;4977204;28;20077;-78
2021/03/12 07:46:51;;;;;;;8.48;3.28;;;;;;;9.32;52.77;99455.09;4975737;28;20065;-78
2021/03/12 07:49:36;;;;;;;12.60;3.70;;;;;;;9.67;51.89;99456.91;4977607;28;20066;-79
2021/03/12 07:52:05;;;;;;;11.82;3.13;;;;;;;10.24;49.94;99464.00;4992292;28;20058;-79
2021/03/12 07:54:53;;;;;;;11.40;3.15;;;;;;;10.59;48.64;99458.22;4977757;28;20073;-80
2021/03/12 07:57:38;;;;;;;11.07;3.70;;;;;;;10.91;48.15;99460.22;4971015;28;20484;-80
2021/03/12 08:00:07;;;;;;;13.27;3.67;;;;;;;10.73;48.54;99456.78;4975777;28;20062;-79
2021/03/12 08:02:57;;;;;;;9.63;3.40;;;;;;;11.08;47.98;99458.44;4974523;28;20066;-79
2021/03/12 08:05:40;;;;;;;9.07;3.75;;;;;;;11.18;47.35;99475.53;4962131;28;20077;-79
2021/03/12 08:08:31;;;;;;;5.07;2.33;;;;;;;11.08;46.97;99480.72;4975029;28;20059;-78
2021/03/12 08:11:18;;;;;;;9.27;3.28;;;;;;;10.82;47.07;99483.75;4966024;28;20066;-79
2021/03/12 08:13:45;;;;;;;8.05;2.58;;;;;;;10.66;46.94;99486.31;4975874;28;20063;-78
2021/03/12 08:16:12;;;;;;;8.35;2.50;;;;;;;10.87;47.29;99478.78;4987326;28;20058;-79
2021/03/12 08:18:39;;;;;;;9.05;3.08;;;;;;;10.84;47.33;99506.53;4977545;28;20093;-79
2021/03/12 08:21:36;;;;;;;16.20;3.72;;;;;;;11.29;46.16;99475.91;4976806;28;20058;-79
2021/03/12 08:24:03;;;;;;;5.90;2.45;;;;;;;11.36;45.64;99478.16;4975868;28;20058;-78
2021/03/12 08:26:50;;;;;;;10.65;3.10;;;;;;;11.82;44.58;99475.34;4988059;28;20069;-78
2021/03/12 08:29:35;;;;;;;11.00;2.80;;;;;;;12.50;43.13;99485.94;4974427;28;20062;-79
2021/03/12 08:32:02;;;;;;;10.70;2.67;;;;;;;12.92;41.31;99471.63;5007235;28;20058;-79
2021/03/12 08:34:40;;;;;;;8.65;2.92;;;;;;;13.13;41.02;99479.81;4996570;28;20408;-79
2021/03/12 08:37:41;;;;;;;11.05;2.88;;;;;;;13.26;40.36;99470.19;5001478;28;20066;-78
2021/03/12 08:40:23;;;;;;;11.02;3.20;;;;;;;13.73;39.41;99489.09;4975406;28;20527;-79
2021/03/12 08:42:59;;;;;;;9.77;2.70;;;;;;;13.49;39.05;99481.63;4991801;28;20507;-75
2021/03/12 08:45:36;;;;;;;11.73;3.80;;;;;;;13.34;39.70;99483.25;4992150;28;20054;-78
2021/03/12 08:48:05;;;;;;;8.00;2.38;;;;;;;13.94;39.10;99465.59;4995349;28;20051;-78
2021/03/12 08:50:34;;;;;;;7.97;3.33;;;;;;;14.66;37.37;99467.28;4996694;28;20057;-79
2021/03/12 08:53:00;;;;;;;8.95;2.65;;;;;;;15.13;36.26;99474.72;4991082;28;20061;-78
2021/03/12 08:55:27;;;;;;;7.38;2.17;;;;;;;15.55;35.21;99468.31;4997542;28;20050;-79
2021/03/12 08:58:15;;;;;;;12.23;2.40;;;;;;;15.48;35.23;99465.38;4998979;28;20062;-79
2021/03/12 09:00:43;;;;;;;6.60;2.00;;;;;;;15.17;35.28;99475.59;5004259;28;20049;-78
2021/03/12 09:03:18;;;;;;;8.45;2.50;;;;;;;15.93;34.51;99470.22;5001976;28;20062;-78
2021/03/12 09:05:48;;;;;;;8.32;3.40;;;;;;;16.71;32.83;99449.31;4990248;28;20058;-77
2021/03/12 09:08:15;;;;;;;7.50;2.50;;;;;;;16.77;31.77;99468.28;4986533;28;20178;-77
2021/03/12 09:10:42;;;;;;;10.50;3.08;;;;;;;16.86;31.74;99468.00;5002200;28;20064;-77
2021/03/12 09:13:14;;;;;;;8.60;2.90;;;;;;;16.32;32.39;99447.56;5002401;28;20050;-79
2021/03/12 09:15:41;;;;;;;6.07;2.33;;;;;;;15.54;33.98;99458.25;5002462;28;20058;-79
2021/03/12 09:18:08;;;;;;;9.40;3.10;;;;;;;14.87;34.66;99462.16;5001465;28;20078;-79
2021/03/12 09:20:35;;;;;;;9.10;2.50;;;;;;;14.85;34.74;99458.13;5003434;28;20065;-78
2021/03/12 09:23:04;;;;;;;9.80;2.53;;;;;;;15.56;34.08;99462.31;5006653;28;20070;-78
2021/03/12 09:25:33;;;;;;;7.57;2.13;;;;;;;15.46;34.17;99448.09;5000436;28;20054;-77
2021/03/12 09:28:06;;;;;;;4.63;2.08;;;;;;;14.77;35.38;99466.34;4996752;28;20489;-77
2021/03/12 09:30:36;;;;;;;8.02;2.35;;;;;;;14.15;36.98;99457.75;4998311;28;20047;-78
2021/03/12 09:33:04;;;;;;;5.63;2.10;;;;;;;14.89;35.64;99482.25;4998976;28;20058;-78
2021/03/12 09:35:38;;;;;;;8.02;2.63;;;;;;;13.97;37.24;99457.28;4997829;28;20050;-78
2021/03/12 09:38:06;;;;;;;10.10;2.50;;;;;;;14.16;37.12;99478.94;4999703;28;20407;-78
2021/03/12 09:40:40;;;;;;;10.75;2.70;;;;;;;13.81;37.97;99450.88;4998908;28;20058;-78
2021/03/12 09:43:09;;;;;;;10.85;2.72;;;;;;;14.28;37.25;99444.44;4998644;28;20073;-78
2021/03/12 09:45:37;;;;;;;6.47;2.10;;;;;;;14.21;37.20;99442.28;4994501;28;20076;-77
2021/03/12 09:48:05;;;;;;;7.40;2.92;;;;;;;16.31;33.86;99431.88;4996614;28;20393;-77
2021/03/12 09:50:35;;;;;;;6.20;1.90;;;;;;;17.06;31.60;99426.47;4996441;28;20062;-77
2021/03/12 09:53:06;;;;;;;9.88;2.72;;;;;;;18.18;29.95;99406.59;4996769;28;20066;-78
2021/03/12 09:55:34;;;;;;;8.00;2.88;;;;;;;18.24;29.62;99421.16;4994699;28;20054;-77
2021/03/12 09:58:06;;;;;;;7.78;2.15;;;;;;;17.72;30.33;99448.47;4996031;28;20468;-78
2021/03/12 10:00:34;;;;;;;12.55;3.05;;;;;;;16.96;31.87;99425.16;5002737;28;20049;-78
2021/03/12 10:03:01;;;;;;;7.93;2.70;;;;;;;18.55;29.36;99425.38;5000254;28;20054;-78
2021/03/12 10:05:28;;;;;;;5.53;2.03;;;;;;;17.75;30.12;99417.53;5002076;28;20065;-79
2021/03/12 10:08:01;;;;;;;6.03;2.40;;;;;;;16.22;33.00;99434.16;5018877;28;20483;-79
2021/03/12 10:10:31;;;;;;;7.13;2.83;;;;;;;18.97;28.65;99434.47;5000018;28;20065;-77
2021/03/12 10:12:59;;;;;;;;;;;;;;;19.39;27.92;99404.75;4999224;28;20480;-79
2021/03/12 10:15:29;;;;;;;8.20;2.40;;;;;;;18.95;28.12;99426.41;4998907;28;19926;-77
2021/03/12 10:17:56;;;;;;;10.55;3.60;;;;;;;19.10;28.53;99423.66;4995183;28;20502;-78
2021/03/12 10:20:26;;;;;;;8.10;2.40;;;;;;;20.28;26.48;99407.63;4981508;28;20054;-77
2021/03/12 10:22:57;;;;;;;7.82;2.25;;;;;;;20.30;25.79;99424.19;4992985;28;20059;-76
2021/03/12 10:25:27;;;;;;;6.28;2.47;;;;;;;20.54;25.10;99404.75;4995377;28;20500;-77
2021/03/12 10:27:56;;;;;;;7.07;2.13;;;;;;;19.89;25.91;99406.88;4994670;28;20423;-78
2021/03/12 10:30:29;;;;;;;8.10;3.17;;;;;;;19.56;26.83;99400.34;4981667;28;20069;-76
2021/03/12 10:33:00;;;;;;;7.88;2.60;;;;;;;18.44;27.92;99408.41;4975536;28;20059;-77
2021/03/12 10:35:31;;;;;;;6.60;1.70;;;;;;;18.45;27.95;99409.19;4973889;28;20051;-77
2021/03/12 10:38:02;;;;;;;9.02;3.08;;;;;;;21.27;24.27;99399.19;4973835;28;20051;-76
2021/03/12 10:40:38;;;;;;;6.78;1.95;;;;;;;21.07;23.83;99387.56;4975226;28;20051;-76
2021/03/12 10:43:18;;;;;;;6.35;2.60;;;;;;;19.28;26.64;99387.81;4973336;28;20484;-77
2021/03/12 10:45:46;;;;;;;;;;;;;;;19.78;26.17;99382.25;4979280;28;20062;-77
2021/03/12 10:48:13;;;;;;;10.02;2.15;;;;;;;18.26;27.88;99374.44;4977376;28;19979;-76
2021/03/12 10:50:41;;;;;;;5.72;2.22;;;;;;;19.12;26.64;99374.03;4971041;28;20059;-78
2021/03/12 10:53:13;;;;;;;9.32;2.28;;;;;;;21.47;23.21;99396.66;4974639;28;20070;-77
2021/03/12 10:55:42;;;;;;;5.35;1.80;;;;;;;21.41;22.79;99380.50;4970282;28;20452;-77
2021/03/12 10:58:25;;;;;;;;;;;;;;;22.22;21.82;99391.59;4967137;28;20051;-77
2021/03/12 11:01:10;;;;;;;6.47;2.72;;;;;;;24.44;19.68;99354.31;4967908;28;19929;-77
2021/03/12 11:03:39;;;;;;;5.53;2.58;;;;;;;24.63;18.91;99338.53;4965094;28;20051;-75
2021/03/12 11:06:06;;;;;;;8.60;2.20;;;;;;;25.41;17.88;99349.44;4967758;28;20062;-76
2021/03/12 11:08:34;;;;;;;4.82;2.28;;;;;;;24.07;19.19;99361.91;4972249;28;20413;-76
2021/03/12 11:11:02;;;;;;;5.60;1.92;;;;;;;21.84;21.10;99378.19;4978251;28;20051;-75
2021/03/12 11:13:30;;;;;;;5.80;2.38;;;;;;;20.18;23.78;99354.72;4972600;28;20063;-75
2021/03/12 11:15:56;;;;;;;6.38;2.50;;;;;;;22.23;21.54;99328.78;4971641;28;20058;-75
2021/03/12 11:18:26;;;;;;;5.43;1.77;;;;;;;19.90;24.04;99335.00;4971330;28;20058;-75
2021/03/12 11:20:53;;;;;;;;;;;;;;;20.18;24.18;99360.38;4971377;28;20061;-75
2021/03/12 11:23:19;;;;;;;5.80;2.58;;;;;;;20.88;22.84;99308.81;4973098;28;19922;-74
2021/03/12 11:25:46;;;;;;;7.80;1.92;;;;;;;21.60;21.58;99317.63;4974273;28;20054;-74
2021/03/12 11:28:13;;;;;;;3.88;1.90;;;;;;;21.01;23.01;99321.25;4971716;28;20050;-74
2021/03/12 11:30:41;;;;;;;6.22;1.50;;;;;;;19.38;24.84;99321.25;4976126;28;20058;-74
2021/03/12 11:33:08;;;;;;;6.25;2.45;;;;;;;18.13;27.06;99318.81;4976929;28;20502;-74
2021/03/12 11:35:35;;;;;;;7.93;2.47;;;;;;;19.29;24.20;99313.19;4976871;28;20065;-75
2021/03/12 11:38:03;;;;;;;9.63;2.08;;;;;;;18.58;25.34;99294.03;4972434;28;20059;-74
2021/03/12 11:40:29;;;;;;;7.53;1.88;;;;;;;17.91;26.66;99295.34;4958069;28;20062;-74
2021/03/12 11:42:56;;;;;;;6.00;1.95;;;;;;;17.18;28.00;99301.59;4973597;28;20081;-74
2021/03/12 11:45:23;;;;;;;6.15;1.77;;;;;;;17.28;27.34;99291.63;4970651;28;20061;-74
2021/03/12 11:47:53;;;;;;;8.05;2.22;;;;;;;18.38;25.36;99287.94;4970408;28;20511;-74
2021/03/12 11:50:20;;;;;;;3.95;2.17;;;;;;;19.59;23.76;99275.25;4969883;28;20063;-75